createdAt,value
2018-09-20T00:02:17.561Z,8.27
2018-09-20T00:04:46.566Z,8.27
2018-09-20T00:07:16.442Z,5.40
2018-09-20T00:09:45.425Z,8.77
2018-09-20T00:12:14.758Z,7.63
2018-09-20T00:14:44.379Z,9.03
2018-09-20T00:17:13.167Z,9.13
2018-09-20T00:19:42.664Z,9.40
2018-09-20T00:22:11.567Z,7.27
2018-09-20T00:24:40.477Z,10.03
2018-09-20T00:27:09.342Z,9.30
2018-09-20T00:29:38.806Z,7.23
2018-09-20T00:32:07.672Z,8.13
2018-09-20T00:34:36.601Z,9.80
2018-09-20T00:37:05.559Z,8.03
2018-09-20T00:39:34.447Z,8.57
2018-09-20T00:42:03.474Z,8.17
2018-09-20T00:44:32.459Z,7.43
2018-09-20T00:47:02.500Z,11.47
2018-09-20T00:49:31.515Z,13.17
2018-09-20T00:52:01.243Z,9.73
2018-09-20T00:54:30.095Z,12.40
2018-09-20T00:56:58.920Z,9.20
2018-09-20T00:59:28.423Z,6.23
2018-09-20T01:01:57.264Z,7.90
2018-09-20T01:04:26.681Z,9.53
2018-09-20T01:06:56.265Z,8.43
2018-09-20T01:09:39.752Z,12.27
2018-09-20T01:12:09.098Z,8.47
2018-09-20T01:14:38.491Z,8.20
2018-09-20T01:17:07.313Z,7.87
2018-09-20T01:19:36.803Z,9.53
2018-09-20T01:22:05.921Z,8.43
2018-09-20T01:25:03.259Z,9.27
2018-09-20T01:27:32.096Z,7.53
2018-09-20T01:30:02.419Z,10.27
2018-09-20T01:32:31.400Z,6.83
2018-09-20T01:35:00.494Z,7.53
2018-09-20T01:37:29.395Z,7.07
2018-09-20T01:39:58.447Z,8.07
2018-09-20T01:42:27.338Z,8.33
2018-09-20T01:44:56.173Z,8.63
2018-09-20T01:47:25.781Z,7.17
2018-09-20T01:49:54.959Z,10.43
2018-09-20T01:52:24.512Z,10.10
2018-09-20T01:54:53.450Z,6.97
2018-09-20T01:57:22.215Z,8.13
2018-09-20T01:59:51.998Z,6.20
2018-09-20T02:02:21.275Z,11.50
2018-09-20T02:04:50.035Z,8.07
2018-09-20T02:07:20.826Z,9.93
2018-09-20T02:09:50.048Z,8.13
2018-09-20T02:12:19.973Z,13.63
2018-09-20T02:14:49.858Z,11.40
2018-09-20T02:17:19.001Z,7.83
2018-09-20T02:19:48.003Z,9.37
2018-09-20T02:22:17.169Z,8.00
2018-09-20T02:24:46.099Z,12.07
2018-09-20T02:27:15.206Z,7.57
2018-09-20T02:29:44.732Z,9.80
2018-09-20T02:32:13.528Z,11.10
2018-09-20T02:34:42.304Z,8.43
2018-09-20T02:37:11.105Z,10.07
2018-09-20T02:39:39.977Z,10.27
2018-09-20T02:42:09.029Z,8.50
2018-09-20T02:44:37.947Z,10.17
2018-09-20T02:47:07.561Z,10.07
2018-09-20T02:49:36.509Z,9.87
2018-09-20T02:52:06.017Z,11.30
2018-09-20T02:54:34.876Z,10.77
2018-09-20T02:57:03.840Z,11.63
2018-09-20T02:59:33.438Z,7.73
2018-09-20T03:02:02.529Z,10.97
2018-09-20T03:04:31.473Z,11.47
2018-09-20T03:07:00.998Z,8.30
2018-09-20T03:09:29.821Z,9.20
2018-09-20T03:11:58.675Z,8.67
2018-09-20T03:14:28.335Z,11.77
2018-09-20T03:16:57.312Z,10.40
2018-09-20T03:19:26.118Z,8.73
2018-09-20T03:21:54.949Z,7.17
2018-09-20T03:24:23.749Z,15.43
2018-09-20T03:26:53.542Z,8.20
2018-09-20T03:29:23.160Z,10.83
2018-09-20T03:31:52.157Z,9.30
2018-09-20T03:34:20.975Z,9.20
2018-09-20T03:36:50.818Z,9.63
2018-09-20T03:39:19.805Z,7.27
2018-09-20T03:41:49.153Z,8.70
2018-09-20T03:44:18.921Z,7.50
2018-09-20T03:46:48.640Z,4.97
2018-09-20T03:49:18.529Z,3.33
2018-09-20T03:54:39.800Z,6.03
2018-09-20T03:57:09.319Z,6.63
2018-09-20T03:59:38.824Z,10.33
2018-09-20T04:02:07.970Z,6.13
2018-09-20T04:04:37.628Z,5.87
2018-09-20T04:07:08.535Z,5.33
2018-09-20T04:09:37.516Z,6.20
2018-09-20T04:12:06.552Z,5.67
2018-09-20T04:14:36.104Z,6.43
2018-09-20T04:17:05.047Z,5.77
2018-09-20T04:19:33.917Z,5.17
2018-09-20T04:22:03.151Z,7.03
2018-09-20T04:24:32.376Z,9.63
2018-09-20T04:27:02.184Z,5.43
2018-09-20T04:29:32.862Z,6.90
2018-09-20T04:32:01.972Z,9.30
2018-09-20T04:34:31.047Z,5.23
2018-09-20T04:37:01.334Z,5.97
2018-09-20T04:39:30.376Z,6.93
2018-09-20T04:41:59.589Z,6.13
2018-09-20T04:44:28.892Z,8.77
2018-09-20T04:46:58.702Z,5.37
2018-09-20T04:49:27.848Z,5.17
2018-09-20T04:51:57.466Z,8.27
2018-09-20T04:54:26.503Z,8.90
2018-09-20T04:59:38.949Z,10.47
2018-09-20T05:02:08.280Z,9.87
2018-09-20T05:04:37.485Z,9.00
2018-09-20T05:07:07.760Z,12.33
2018-09-20T05:09:37.011Z,11.37
2018-09-20T05:12:06.534Z,10.87
2018-09-20T05:14:36.144Z,10.83
2018-09-20T05:17:05.463Z,10.87
2018-09-20T05:19:34.792Z,11.60
2018-09-20T05:22:03.960Z,9.10
2018-09-20T05:24:33.636Z,11.87
2018-09-20T05:27:06.716Z,9.97
2018-09-20T05:29:37.633Z,16.50
2018-09-20T05:32:07.877Z,12.70
2018-09-20T05:34:46.546Z,9.10
2018-09-20T05:37:24.613Z,15.13
2018-09-20T05:39:56.162Z,8.50
2018-09-20T05:42:30.318Z,10.70
2018-09-20T05:45:01.384Z,9.77
2018-09-20T05:47:31.992Z,10.73
2018-09-20T05:50:06.675Z,11.27
2018-09-20T05:52:40.200Z,10.90
2018-09-20T05:55:12.889Z,10.77
2018-09-20T05:57:42.229Z,10.40
2018-09-20T06:00:13.509Z,11.33
2018-09-20T06:02:42.603Z,9.57
2018-09-20T06:05:12.787Z,11.23
2018-09-20T06:10:22.350Z,10.87
2018-09-20T06:12:51.561Z,13.70
2018-09-20T06:15:22.077Z,10.37
2018-09-20T06:17:51.699Z,14.17
2018-09-20T06:20:22.972Z,14.17
2018-09-20T06:22:53.073Z,13.67
2018-09-20T06:25:23.512Z,15.73
2018-09-20T06:27:52.598Z,13.17
2018-09-20T06:30:22.189Z,12.67
2018-09-20T06:32:51.228Z,16.63
2018-09-20T06:35:22.334Z,9.23
2018-09-20T06:37:51.408Z,15.20
2018-09-20T06:40:22.124Z,11.47
2018-09-20T06:42:51.168Z,16.73
2018-09-20T06:45:20.278Z,13.83
2018-09-20T06:47:50.131Z,13.63
2018-09-20T06:50:20.205Z,14.97
2018-09-20T06:52:50.105Z,9.33
2018-09-20T06:55:20.486Z,12.30
2018-09-20T06:57:52.918Z,12.90
2018-09-20T07:00:22.685Z,15.07
2018-09-20T07:02:51.784Z,12.07
2018-09-20T07:05:21.003Z,16.17
2018-09-20T07:07:52.350Z,11.80
2018-09-20T07:10:21.838Z,14.60
2018-09-20T07:15:37.573Z,18.97
2018-09-20T07:18:06.733Z,13.83
2018-09-20T07:20:35.757Z,13.90
2018-09-20T07:23:05.012Z,15.60
2018-09-20T07:28:22.652Z,16.87
2018-09-20T07:30:52.129Z,14.83
2018-09-20T07:33:21.211Z,12.13
2018-09-20T07:35:50.322Z,17.00
2018-09-20T07:38:19.476Z,15.90
2018-09-20T07:40:49.070Z,14.47
2018-09-20T07:43:18.898Z,15.27
2018-09-20T07:45:48.589Z,15.70
2018-09-20T07:48:19.834Z,17.13
2018-09-20T07:50:49.442Z,12.27
2018-09-20T07:53:19.460Z,13.33
2018-09-20T07:55:48.758Z,13.00
2018-09-20T07:58:19.330Z,16.20
2018-09-20T08:00:49.336Z,16.37
2018-09-20T08:03:18.492Z,15.23
2018-09-20T08:05:47.659Z,15.43
2018-09-20T08:08:18.293Z,14.80
2018-09-20T08:10:48.335Z,10.10
2018-09-20T08:13:19.213Z,11.50
2018-09-20T08:15:48.560Z,12.97
2018-09-20T08:18:18.930Z,13.90
2018-09-20T08:20:48.109Z,11.23
2018-09-20T08:23:18.572Z,14.07
2018-09-20T08:25:49.149Z,8.83
2018-09-20T08:28:19.330Z,15.70
2018-09-20T08:30:48.713Z,12.20
2018-09-20T08:33:17.773Z,14.57
2018-09-20T08:35:46.786Z,13.10
2018-09-20T08:38:16.831Z,15.33
2018-09-20T08:40:46.257Z,13.67
2018-09-20T08:43:15.529Z,14.87
2018-09-20T08:45:45.277Z,15.57
2018-09-20T08:48:14.954Z,15.50
2018-09-20T08:50:44.505Z,13.03
2018-09-20T08:53:14.365Z,12.93
2018-09-20T08:55:43.460Z,13.10
2018-09-20T08:58:12.829Z,12.77
2018-09-20T09:00:42.650Z,16.77
2018-09-20T09:03:11.616Z,12.60
2018-09-20T09:05:40.531Z,12.00
2018-09-20T09:08:10.234Z,13.93
2018-09-20T09:10:39.345Z,9.47
2018-09-20T09:13:08.987Z,14.53
2018-09-20T09:15:37.915Z,11.73
2018-09-20T09:18:06.473Z,14.77
2018-09-20T09:20:35.712Z,10.00
2018-09-20T09:23:04.689Z,11.17
2018-09-20T09:25:34.393Z,9.47
2018-09-20T09:28:03.513Z,11.43
2018-09-20T09:30:34.116Z,9.47
2018-09-20T09:33:03.158Z,10.70
2018-09-20T09:35:32.257Z,12.57
2018-09-20T09:38:01.609Z,9.13
2018-09-20T09:40:30.525Z,7.13
2018-09-20T09:43:00.369Z,8.63
2018-09-20T09:45:29.226Z,12.63
2018-09-20T09:47:58.552Z,9.27
2018-09-20T09:50:27.373Z,10.40
2018-09-20T09:52:56.944Z,9.00
2018-09-20T09:55:25.942Z,9.70
2018-09-20T09:57:55.911Z,10.73
2018-09-20T10:00:31.309Z,10.63
2018-09-20T10:03:00.224Z,8.00
2018-09-20T10:05:29.109Z,9.20
2018-09-20T10:07:58.605Z,8.50
2018-09-20T10:10:27.560Z,11.60
2018-09-20T10:12:57.108Z,9.07
2018-09-20T10:15:26.210Z,10.33
2018-09-20T10:17:55.056Z,7.40
2018-09-20T10:20:23.962Z,9.77
2018-09-20T10:22:52.861Z,8.67
2018-09-20T10:25:22.143Z,8.30
2018-09-20T10:27:51.437Z,10.13
2018-09-20T10:30:20.919Z,10.47
2018-09-20T10:32:49.806Z,9.00
2018-09-20T10:35:19.108Z,11.43
2018-09-20T10:37:48.146Z,9.20
2018-09-20T10:40:17.721Z,9.13
2018-09-20T10:42:47.776Z,9.03
2018-09-20T10:45:17.085Z,9.33
2018-09-20T10:47:46.773Z,8.37
2018-09-20T10:50:16.236Z,8.57
2018-09-20T10:52:46.006Z,7.63
2018-09-20T10:55:14.990Z,8.53
2018-09-20T10:57:44.194Z,13.97
2018-09-20T11:00:13.643Z,10.73
2018-09-20T11:02:42.542Z,8.40
2018-09-20T11:05:11.450Z,10.07
2018-09-20T11:07:40.948Z,9.60
2018-09-20T11:10:09.928Z,9.03
2018-09-20T11:12:38.843Z,9.13
2018-09-20T11:15:08.463Z,7.90
2018-09-20T11:17:37.609Z,7.43
2018-09-20T11:20:06.609Z,8.23
2018-09-20T11:22:35.544Z,8.33
2018-09-20T11:25:05.112Z,7.23
2018-09-20T11:27:34.173Z,8.60
2018-09-20T11:30:04.304Z,11.27
2018-09-20T11:32:33.292Z,9.93
2018-09-20T11:35:02.544Z,7.83
2018-09-20T11:37:31.550Z,8.90
2018-09-20T11:40:02.064Z,12.60
2018-09-20T11:45:09.852Z,9.00
2018-09-20T11:47:39.600Z,10.00
2018-09-20T11:50:08.668Z,7.67
2018-09-20T11:52:38.055Z,9.50
2018-09-20T11:55:06.989Z,7.63
2018-09-20T11:57:35.949Z,12.10
2018-09-20T12:00:05.578Z,7.23
2018-09-20T12:02:34.423Z,9.27
2018-09-20T12:05:04.152Z,7.63
2018-09-20T12:07:33.713Z,11.67
2018-09-20T12:10:02.851Z,10.33
2018-09-20T12:12:31.804Z,10.10
2018-09-20T12:15:01.474Z,11.10
2018-09-20T12:17:30.479Z,10.63
2018-09-20T12:19:59.455Z,9.40
2018-09-20T12:22:28.441Z,12.17
2018-09-20T12:24:58.050Z,11.37
2018-09-20T12:27:26.907Z,10.63
2018-09-20T12:29:56.818Z,8.17
2018-09-20T12:32:25.770Z,12.43
2018-09-20T12:34:54.700Z,6.90
2018-09-20T12:37:30.273Z,7.67
2018-09-20T12:39:59.273Z,9.47
2018-09-20T12:42:28.214Z,8.43
2018-09-20T12:44:57.103Z,7.33
2018-09-20T12:47:26.590Z,7.00
2018-09-20T12:49:55.501Z,7.33
2018-09-20T12:52:25.243Z,13.00
2018-09-20T12:54:54.665Z,7.13
2018-09-20T12:57:23.969Z,13.37
2018-09-20T12:59:53.338Z,7.50
2018-09-20T13:02:22.617Z,9.40
2018-09-20T13:04:52.097Z,10.03
2018-09-20T13:07:22.201Z,9.20
2018-09-20T13:09:51.158Z,11.27
2018-09-20T13:12:20.898Z,8.27
2018-09-20T13:14:50.128Z,12.73
2018-09-20T13:17:19.223Z,8.03
2018-09-20T13:19:48.281Z,7.73
2018-09-20T13:22:17.461Z,6.67
2018-09-20T13:24:46.555Z,6.57
2018-09-20T13:27:16.532Z,9.47
2018-09-20T13:29:46.077Z,7.90
2018-09-20T13:32:15.021Z,10.23
2018-09-20T13:34:44.557Z,8.93
2018-09-20T13:37:13.450Z,11.30
2018-09-20T13:39:42.343Z,10.87
2018-09-20T13:42:11.725Z,9.33
2018-09-20T13:44:40.584Z,9.33
2018-09-20T13:47:11.127Z,8.73
2018-09-20T13:49:40.000Z,7.00
2018-09-20T13:52:09.630Z,5.33
2018-09-20T13:54:38.470Z,5.60
2018-09-20T13:57:07.410Z,7.70
2018-09-20T13:59:37.882Z,7.23
2018-09-20T14:02:07.035Z,6.73
2018-09-20T14:04:35.930Z,7.03
2018-09-20T14:07:05.738Z,5.37
2018-09-20T14:09:34.576Z,6.87
2018-09-20T14:12:04.417Z,9.00
2018-09-20T14:14:34.056Z,7.60
2018-09-20T14:17:03.143Z,6.90
2018-09-20T14:19:32.036Z,4.20
2018-09-20T14:22:01.342Z,7.87
2018-09-20T14:24:30.199Z,8.07
2018-09-20T14:26:59.689Z,5.93
2018-09-20T14:29:29.139Z,6.83
2018-09-20T14:31:58.363Z,6.40
2018-09-20T14:34:27.202Z,5.33
2018-09-20T14:36:56.307Z,6.80
2018-09-20T14:39:25.275Z,6.00
2018-09-20T14:41:54.161Z,6.53
2018-09-20T14:44:23.240Z,8.40
2018-09-20T14:46:52.523Z,6.93
2018-09-20T14:49:21.404Z,7.83
2018-09-20T14:51:50.836Z,6.17
2018-09-20T14:54:19.684Z,8.43
2018-09-20T14:56:48.813Z,8.23
2018-09-20T14:59:19.124Z,5.30
2018-09-20T15:01:48.099Z,6.40
2018-09-20T15:04:17.019Z,11.57
2018-09-20T15:06:46.947Z,5.87
2018-09-20T15:09:15.711Z,9.10
2018-09-20T15:11:45.093Z,10.17
2018-09-20T15:14:14.403Z,8.20
2018-09-20T15:16:43.166Z,11.47
2018-09-20T15:19:11.970Z,7.70
2018-09-20T15:21:40.867Z,6.20
2018-09-20T15:24:09.708Z,7.43
2018-09-20T15:26:39.009Z,5.63
2018-09-20T15:29:08.408Z,8.33
2018-09-20T15:31:37.361Z,5.27
2018-09-20T15:34:06.459Z,9.73
2018-09-20T15:36:35.348Z,8.07
2018-09-20T15:39:05.653Z,8.40
2018-09-20T15:41:34.580Z,6.90
2018-09-20T15:44:03.970Z,8.93
2018-09-20T15:46:33.734Z,9.73
2018-09-20T15:49:02.722Z,8.60
2018-09-20T15:51:32.794Z,6.93
2018-09-20T15:54:02.400Z,9.67
2018-09-20T15:56:31.444Z,6.40
2018-09-20T15:59:00.981Z,7.20
2018-09-20T16:01:30.520Z,5.87
2018-09-20T16:03:59.345Z,6.30
2018-09-20T16:06:28.168Z,5.20
2018-09-20T16:08:57.875Z,6.07
2018-09-20T16:11:27.294Z,6.90
2018-09-20T16:13:56.727Z,9.23
2018-09-20T16:16:25.534Z,7.23
2018-09-20T16:18:54.514Z,8.63
2018-09-20T16:21:23.371Z,7.87
2018-09-20T16:23:52.193Z,11.47
2018-09-20T16:26:21.559Z,9.53
2018-09-20T16:29:15.808Z,9.37
2018-09-20T16:32:03.258Z,10.17
2018-09-20T16:34:46.930Z,8.47
2018-09-20T16:37:27.382Z,9.27
2018-09-20T16:40:00.963Z,9.90
2018-09-20T16:42:32.092Z,8.60
2018-09-20T16:45:01.375Z,8.53
2018-09-20T16:47:31.333Z,8.70
2018-09-20T16:50:00.326Z,7.80
2018-09-20T16:52:33.750Z,6.50
2018-09-20T16:55:27.431Z,6.90
2018-09-20T16:57:57.954Z,7.27
2018-09-20T17:03:18.098Z,6.67
2018-09-20T17:06:35.376Z,10.00
2018-09-20T17:17:42.306Z,6.60
2018-09-20T17:26:33.049Z,3.47
2018-09-20T17:32:47.465Z,8.13
2018-09-20T17:38:44.136Z,6.40
2018-09-20T17:41:19.300Z,7.73
2018-09-20T17:43:52.798Z,10.63
2018-09-20T17:46:29.736Z,6.10
2018-09-20T17:52:45.939Z,6.83
2018-09-20T17:55:25.669Z,8.83
2018-09-20T17:58:42.363Z,10.77
2018-09-20T18:04:17.186Z,5.30
2018-09-20T18:06:51.089Z,10.03
2018-09-20T18:09:20.490Z,7.53
2018-09-20T18:14:54.907Z,6.67
2018-09-20T18:17:26.767Z,6.43
2018-09-20T18:19:57.948Z,7.60
2018-09-20T18:22:28.287Z,8.20
2018-09-20T18:24:58.163Z,6.63
2018-09-20T18:30:15.299Z,6.47
2018-09-20T18:32:44.759Z,4.40
2018-09-20T18:35:17.941Z,8.40
2018-09-20T18:40:28.787Z,6.73
2018-09-20T18:42:57.867Z,6.13
2018-09-20T18:45:27.448Z,7.23
2018-09-20T18:47:57.566Z,7.50
2018-09-20T18:50:27.412Z,9.10
2018-09-20T18:52:57.756Z,7.13
2018-09-20T18:55:27.918Z,4.47
2018-09-20T18:57:58.511Z,7.50
2018-09-20T19:00:28.250Z,7.83
2018-09-20T19:03:01.470Z,2.90
2018-09-20T19:05:30.698Z,7.77
2018-09-20T19:08:00.382Z,5.97
2018-09-20T19:10:29.914Z,7.37
2018-09-20T19:12:59.861Z,5.00
2018-09-20T19:15:28.805Z,11.83
2018-09-20T19:17:57.762Z,6.93
2018-09-20T19:20:27.133Z,8.77
2018-09-20T19:22:56.148Z,6.53
2018-09-20T19:25:26.021Z,8.73
2018-09-20T19:27:55.436Z,8.00
2018-09-20T19:30:25.479Z,5.77
2018-09-20T19:32:54.613Z,7.77
2018-09-20T19:35:23.582Z,6.27
2018-09-20T19:40:36.645Z,6.60
2018-09-20T19:43:25.008Z,7.13
2018-09-20T19:45:54.580Z,6.03
2018-09-20T19:48:24.469Z,10.73
2018-09-20T19:50:55.084Z,7.90
2018-09-20T19:53:27.595Z,6.07
2018-09-20T19:58:43.169Z,5.33
2018-09-20T20:01:12.300Z,5.93
2018-09-20T20:03:42.468Z,7.30
2018-09-20T20:06:12.393Z,5.80
2018-09-20T20:08:42.693Z,6.00
2018-09-20T20:11:12.070Z,6.80
2018-09-20T20:13:41.705Z,9.80
2018-09-20T20:16:10.879Z,4.50
2018-09-20T20:18:41.763Z,7.50
2018-09-20T20:21:10.711Z,4.87
2018-09-20T20:23:41.316Z,4.67
2018-09-20T20:26:11.988Z,6.67
2018-09-20T20:28:41.914Z,6.47
2018-09-20T20:31:10.830Z,6.23
2018-09-20T20:33:39.828Z,4.47
2018-09-20T20:36:09.112Z,5.07
2018-09-20T20:38:38.093Z,5.53
2018-09-20T20:41:07.215Z,6.97
2018-09-20T20:43:36.335Z,7.40
2018-09-20T20:46:06.110Z,7.03
2018-09-20T20:48:35.305Z,6.67
2018-09-20T20:51:04.996Z,5.00
2018-09-20T20:53:34.776Z,6.07
2018-09-20T20:56:04.503Z,5.97
2018-09-20T20:58:35.941Z,7.40
2018-09-20T21:01:05.161Z,7.33
2018-09-20T21:03:35.970Z,4.57
2018-09-20T21:06:06.681Z,3.20
2018-09-20T21:08:36.971Z,4.67
2018-09-20T21:11:05.815Z,6.60
2018-09-20T21:13:35.184Z,2.77
2018-09-20T21:16:04.657Z,7.97
2018-09-20T21:18:33.778Z,7.03
2018-09-20T21:21:02.860Z,7.07
2018-09-20T21:23:31.785Z,3.30
2018-09-20T21:26:01.199Z,6.00
2018-09-20T21:28:31.261Z,4.00
2018-09-20T21:31:00.391Z,6.03
2018-09-20T21:33:29.745Z,5.20
2018-09-20T21:35:59.218Z,5.50
2018-09-20T21:38:28.237Z,5.13
2018-09-20T21:40:57.731Z,5.97
2018-09-20T21:43:28.242Z,7.17
2018-09-20T21:46:02.249Z,7.80
2018-09-20T21:48:31.500Z,6.97
2018-09-20T21:51:01.682Z,4.83
2018-09-20T21:53:31.977Z,7.97
2018-09-20T21:56:02.403Z,3.67
2018-09-20T21:58:34.119Z,6.53
2018-09-20T22:01:07.860Z,6.17
2018-09-20T22:03:41.323Z,9.90
2018-09-20T22:06:15.193Z,5.37
2018-09-20T22:08:46.697Z,3.63
2018-09-20T22:11:16.339Z,5.47
2018-09-20T22:13:48.087Z,7.37
2018-09-20T22:16:17.666Z,7.57
2018-09-20T22:18:47.737Z,9.03
2018-09-20T22:21:17.479Z,7.43
2018-09-20T22:23:46.845Z,9.83
2018-09-20T22:26:19.603Z,7.70
2018-09-20T22:28:49.860Z,5.67
2018-09-20T22:31:23.558Z,8.23
2018-09-20T22:34:01.205Z,5.13
2018-09-20T22:36:42.024Z,6.33
2018-09-20T22:39:21.507Z,7.07
2018-09-20T22:41:54.655Z,5.03
2018-09-20T22:44:25.102Z,4.93
2018-09-20T22:46:55.208Z,5.63
2018-09-20T22:49:27.133Z,8.03
2018-09-20T22:51:57.451Z,6.90
2018-09-20T22:54:27.932Z,4.80
2018-09-20T22:57:03.323Z,5.37
2018-09-20T22:59:34.502Z,6.73
2018-09-20T23:02:08.120Z,2.87
2018-09-20T23:04:38.320Z,5.13
2018-09-20T23:07:08.586Z,4.07
2018-09-20T23:09:38.935Z,4.23
2018-09-20T23:12:07.760Z,4.33
2018-09-20T23:14:37.392Z,3.27
2018-09-20T23:17:07.041Z,4.20
2018-09-20T23:19:38.147Z,5.90
2018-09-20T23:22:07.586Z,4.60
2018-09-20T23:24:38.434Z,5.93
2018-09-20T23:27:08.436Z,7.73
2018-09-20T23:29:38.641Z,3.70
2018-09-20T23:32:07.959Z,6.80
2018-09-20T23:34:37.339Z,4.23
2018-09-20T23:37:36.897Z,4.97
2018-09-20T23:40:06.236Z,7.47
2018-09-20T23:42:37.567Z,5.93
2018-09-20T23:45:07.552Z,7.30
2018-09-20T23:47:39.852Z,3.67
2018-09-20T23:50:09.157Z,4.03
2018-09-20T23:52:39.268Z,6.33
2018-09-20T23:55:10.034Z,5.40
2018-09-20T23:57:40.571Z,3.23
